Time;durP1;ratioP1;P1;durP2;ratioP2;P2;SDS_P1;SDS_P2;PMS_P1;PMS_P2;Temp;Humidity;BMP_temperature;BMP_pressure;BME280_temperature;BME280_humidity;BME280_pressure;Samples;Min_cycle;Max_cycle;Signal;HPM_P1;HPM_P2
2021/11/23 00:00:27;;;;;;;;;;;;;;;22.23;29.88;97802.75;4939973;29;955;-79
2021/11/23 00:02:56;;;;;;;;;;;;;;;22.17;30.17;97810.22;4948643;29;913;-80
2021/11/23 00:05:21;;;;;;;;;;;;;;;22.29;30.10;97804.56;4933110;29;1203;-80
2021/11/23 00:07:47;;;;;;;;;;;;;;;22.57;30.42;97802.03;4931951;29;990;-81
2021/11/23 00:10:12;;;;;;;;;;;;;;;22.66;29.91;97802.13;4931179;29;1218;-80
2021/11/23 00:12:38;;;;;;;;;;;;;;;22.77;29.79;97805.38;4897746;29;1900;-81
2021/11/23 00:15:03;;;;;;;;;;;;;;;22.40;29.86;97797.75;4892436;29;897;-80
2021/11/23 00:17:29;;;;;;;;;;;;;;;22.33;29.59;97793.91;4914298;29;961;-80
2021/11/23 00:19:54;;;;;;;;;;;;;;;22.24;29.59;97793.78;4914379;29;918;-80
2021/11/23 00:22:20;;;;;;;;;;;;;;;22.35;29.49;97797.06;4914106;29;902;-80
2021/11/23 00:24:45;;;;;;;;;;;;;;;22.36;29.77;97800.69;4911771;29;880;-80
2021/11/23 00:27:12;;;;;;;;;;;;;;;22.38;30.16;97794.56;4913545;29;913;-80
2021/11/23 00:29:37;;;;;;;;;;;;;;;22.59;29.98;97799.53;4892182;29;946;-80
2021/11/23 00:32:03;;;;;;;;;;;;;;;22.83;29.65;97809.22;4894827;29;1892;-80
2021/11/23 00:34:29;;;;;;;;;;;;;;;22.53;29.50;97807.00;4892688;29;1014;-80
2021/11/23 00:36:54;;;;;;;;;;;;;;;22.35;29.59;97811.25;4894286;29;1315;-80
2021/11/23 00:39:20;;;;;;;;;;;;;;;22.23;29.71;97820.56;4892741;29;986;-80
2021/11/23 00:41:48;;;;;;;;;;;;;;;22.14;29.89;97805.47;4895772;29;927;-80
2021/11/23 00:44:17;;;;;;;;;;;;;;;22.66;29.87;97804.97;4910935;29;879;-80
2021/11/23 00:46:42;;;;;;;;;;;;;;;22.82;29.54;97818.19;4901514;29;1212;-80
2021/11/23 00:49:08;;;;;;;;;;;;;;;22.44;29.61;97810.56;4949477;29;893;-80
2021/11/23 00:51:34;;;;;;;;;;;;;;;22.16;30.06;97820.75;4951083;29;1884;-80
2021/11/23 00:53:59;;;;;;;;;;;;;;;22.08;29.91;97820.19;4944969;29;1164;-81
2021/11/23 00:56:25;;;;;;;;;;;;;;;22.31;29.93;97807.72;4950688;29;1006;-80
2021/11/23 00:58:50;;;;;;;;;;;;;;;22.21;29.84;97814.53;4948555;29;953;-80
2021/11/23 01:01:16;;;;;;;;;;;;;;;22.33;29.71;97808.09;4981855;28;939;-80
2021/11/23 01:03:41;;;;;;;;;;;;;;;22.36;30.34;97814.88;4988590;28;815;-80
2021/11/23 01:06:07;;;;;;;;;;;;;;;22.70;29.87;97817.00;4970865;29;954;-80
2021/11/23 01:08:37;;;;;;;;;;;;;;;22.83;29.63;97819.78;4967382;29;943;-80
2021/11/23 01:11:02;;;;;;;;;;;;;;;22.81;29.47;97811.72;4932192;29;1891;-80
2021/11/23 01:13:28;;;;;;;;;;;;;;;22.51;29.63;97812.38;4928321;29;903;-80
2021/11/23 01:15:56;;;;;;;;;;;;;;;22.40;29.89;97809.09;4933136;29;792;-80
2021/11/23 01:18:22;;;;;;;;;;;;;;;22.17;29.88;97813.84;4940736;29;1324;-80
2021/11/23 01:20:47;;;;;;;;;;;;;;;22.33;29.94;97801.63;4951214;29;879;-80
2021/11/23 01:23:13;;;;;;;;;;;;;;;22.25;29.78;97798.22;4949433;29;1051;-80
2021/11/23 01:25:38;;;;;;;;;;;;;;;22.30;29.75;97794.81;4968884;28;796;-80
2021/11/23 01:28:03;;;;;;;;;;;;;;;22.29;29.82;97793.22;4933081;29;938;-80
2021/11/23 01:30:29;;;;;;;;;;;;;;;22.36;30.01;97787.31;4934893;29;880;-80
2021/11/23 01:32:54;;;;;;;;;;;;;;;22.44;29.62;97787.09;4933360;29;1883;-80
2021/11/23 01:35:20;;;;;;;;;;;;;;;22.35;29.94;97785.72;4932523;29;939;-80
2021/11/23 01:37:46;;;;;;;;;;;;;;;22.44;29.76;97787.09;4932278;29;985;-79
2021/11/23 01:40:12;;;;;;;;;;;;;;;22.59;30.03;97793.88;4932224;29;890;-80
2021/11/23 01:42:37;;;;;;;;;;;;;;;22.73;29.54;97793.38;4952890;28;884;-79
2021/11/23 01:45:05;;;;;;;;;;;;;;;22.63;29.33;97794.53;4989576;28;930;-80
2021/11/23 01:47:30;;;;;;;;;;;;;;;22.40;29.37;97792.09;4975295;28;986;-80
2021/11/23 01:49:55;;;;;;;;;;;;;;;22.41;29.37;97799.34;4955612;29;1168;-80
2021/11/23 01:52:21;;;;;;;;;;;;;;;22.32;29.20;97797.97;4933052;29;1984;-80
2021/11/23 01:54:47;;;;;;;;;;;;;;;22.16;29.97;97803.75;4930799;29;883;-79
2021/11/23 01:57:12;;;;;;;;;;;;;;;22.46;29.26;97807.25;4932344;29;829;-79
2021/11/23 01:59:38;;;;;;;;;;;;;;;22.34;29.44;97801.16;4959497;28;895;-80
2021/11/23 02:02:03;;;;;;;;;;;;;;;22.52;30.31;97799.75;4987041;28;999;-80
2021/11/23 02:04:29;;;;;;;;;;;;;;;22.75;29.39;97802.22;4998379;28;916;-79
2021/11/23 02:06:54;;;;;;;;;;;;;;;22.70;29.21;97799.97;5009227;28;876;-80
2021/11/23 02:09:19;;;;;;;;;;;;;;;22.20;29.82;97806.50;5007039;28;933;-79
2021/11/23 02:11:45;;;;;;;;;;;;;;;22.33;29.23;97805.25;5009571;28;1895;-80
2021/11/23 02:14:10;;;;;;;;;;;;;;;22.28;29.39;97797.31;4988070;28;914;-79
2021/11/23 02:16:36;;;;;;;;;;;;;;;22.56;30.06;97803.28;4992213;28;902;-79
2021/11/23 02:19:01;;;;;;;;;;;;;;;22.69;29.80;97801.22;4989437;28;1001;-80
2021/11/23 02:21:27;;;;;;;;;;;;;;;22.69;29.48;97798.38;5005585;28;965;-80
2021/11/23 02:23:52;;;;;;;;;;;;;;;22.58;29.29;97797.94;5036864;28;982;-80
2021/11/23 02:26:18;;;;;;;;;;;;;;;22.30;29.11;97799.69;5033725;28;946;-80
2021/11/23 02:28:43;;;;;;;;;;;;;;;22.19;29.31;97805.69;4986338;28;1129;-79
2021/11/23 02:31:09;;;;;;;;;;;;;;;22.57;29.97;97813.38;4989413;28;1952;-79
2021/11/23 02:33:34;;;;;;;;;;;;;;;22.63;30.07;97809.50;4985126;28;885;-79
2021/11/23 02:36:01;;;;;;;;;;;;;;;22.73;29.39;97810.38;4988201;28;932;-79
2021/11/23 02:38:26;;;;;;;;;;;;;;;22.55;29.54;97808.16;4985266;28;1025;-79
2021/11/23 02:40:52;;;;;;;;;;;;;;;22.43;29.43;97803.28;4969324;29;913;-79
2021/11/23 02:43:17;;;;;;;;;;;;;;;22.25;29.74;97792.53;4947124;29;895;-79
2021/11/23 02:45:43;;;;;;;;;;;;;;;22.40;29.57;97804.22;4969661;29;1116;-79
2021/11/23 02:48:09;;;;;;;;;;;;;;;22.48;30.21;97793.41;4891706;29;1195;-80
2021/11/23 02:50:34;;;;;;;;;;;;;;;22.88;29.46;97800.16;4894047;29;950;-79
2021/11/23 02:53:00;;;;;;;;;;;;;;;22.70;29.18;97796.34;4911090;29;1918;-79
2021/11/23 02:55:27;;;;;;;;;;;;;;;22.50;29.66;97796.59;4910649;29;882;-79
2021/11/23 02:57:52;;;;;;;;;;;;;;;22.23;29.50;97812.06;4910271;29;979;-79
2021/11/23 03:00:20;;;;;;;;;;;;;;;22.40;29.59;97809.09;4891274;29;1130;-80
2021/11/23 03:02:47;;;;;;;;;;;;;;;22.67;29.62;97814.25;4893335;29;995;-80
2021/11/23 03:05:13;;;;;;;;;;;;;;;22.81;29.50;97810.94;4892376;29;963;-79
2021/11/23 03:07:39;;;;;;;;;;;;;;;22.50;29.58;97814.41;4894623;29;935;-80
2021/11/23 03:10:05;;;;;;;;;;;;;;;22.65;29.16;97819.59;4863671;29;1067;-80
2021/11/23 03:12:30;;;;;;;;;;;;;;;22.20;29.76;97824.28;4871389;29;1895;-79
2021/11/23 03:14:56;;;;;;;;;;;;;;;22.29;29.59;97832.91;4853622;29;980;-80
2021/11/23 03:17:21;;;;;;;;;;;;;;;22.35;29.74;97816.91;4899728;29;906;-79
2021/11/23 03:19:47;;;;;;;;;;;;;;;22.39;29.73;97819.63;4962784;29;972;-80
2021/11/23 03:22:13;;;;;;;;;;;;;;;22.52;29.98;97820.41;4985295;28;979;-79
2021/11/23 03:24:38;;;;;;;;;;;;;;;22.60;29.89;97823.81;5006348;28;1102;-80
2021/11/23 03:27:04;;;;;;;;;;;;;;;22.87;29.45;97826.13;5027112;28;974;-80
2021/11/23 03:29:30;;;;;;;;;;;;;;;22.48;29.32;97821.75;4970406;28;926;-79
2021/11/23 03:31:55;;;;;;;;;;;;;;;22.39;29.77;97830.19;4986381;28;1907;-79
2021/11/23 03:34:21;;;;;;;;;;;;;;;22.32;29.72;97826.31;4985398;28;938;-79
2021/11/23 03:36:46;;;;;;;;;;;;;;;22.25;30.55;97820.88;4987172;28;981;-79
2021/11/23 03:39:12;;;;;;;;;;;;;;;22.60;29.69;97813.25;4985103;28;928;-79
2021/11/23 03:41:37;;;;;;;;;;;;;;;22.52;29.63;97816.78;4986880;28;954;-79
2021/11/23 03:44:03;;;;;;;;;;;;;;;22.40;29.42;97820.44;4984938;28;952;-80
2021/11/23 03:46:28;;;;;;;;;;;;;;;22.50;29.48;97822.13;4987294;28;930;-79
2021/11/23 03:48:54;;;;;;;;;;;;;;;22.52;28.99;97828.13;4984922;28;910;-80
2021/11/23 03:51:19;;;;;;;;;;;;;;;22.43;29.28;97825.16;4968240;29;1902;-79
2021/11/23 03:53:45;;;;;;;;;;;;;;;22.20;29.78;97823.50;4968595;29;999;-80
2021/11/23 03:56:12;;;;;;;;;;;;;;;22.44;30.25;97815.44;4945060;29;1076;-80
2021/11/23 03:58:37;;;;;;;;;;;;;;;22.70;29.51;97811.31;4949050;29;923;-80
2021/11/23 04:01:03;;;;;;;;;;;;;;;22.56;29.49;97817.47;4952355;29;958;-80
2021/11/23 04:03:28;;;;;;;;;;;;;;;22.16;29.88;97822.81;4964703;28;1205;-80
2021/11/23 04:05:54;;;;;;;;;;;;;;;22.32;29.52;97809.31;4972048;28;913;-80
2021/11/23 04:08:20;;;;;;;;;;;;;;;22.42;29.62;97812.25;5001751;28;958;-80
2021/11/23 04:10:46;;;;;;;;;;;;;;;22.63;29.83;97823.66;5008573;28;1034;-80
2021/11/23 04:13:11;;;;;;;;;;;;;;;22.82;29.35;97816.16;4975143;28;1887;-80
2021/11/23 04:15:37;;;;;;;;;;;;;;;22.70;29.18;97811.31;4993089;28;854;-81
2021/11/23 04:18:02;;;;;;;;;;;;;;;22.41;29.58;97819.19;4991676;28;998;-80
2021/11/23 04:20:27;;;;;;;;;;;;;;;22.43;29.54;97819.50;4991730;28;1131;-80
2021/11/23 04:22:53;;;;;;;;;;;;;;;22.30;29.66;97825.97;5007768;28;918;-80
2021/11/23 04:25:18;;;;;;;;;;;;;;;22.58;30.26;97826.28;4991843;28;982;-79
2021/11/23 04:27:44;;;;;;;;;;;;;;;22.78;29.72;97823.19;5008327;28;981;-80
2021/11/23 04:30:10;;;;;;;;;;;;;;;22.57;29.35;97827.53;4989088;28;1461;-80
2021/11/23 04:32:36;;;;;;;;;;;;;;;22.40;29.64;97837.44;4991840;28;1887;-80
2021/11/23 04:35:01;;;;;;;;;;;;;;;22.25;29.82;97843.56;5005308;28;972;-80
2021/11/23 04:37:27;;;;;;;;;;;;;;;22.44;29.46;97826.78;5023947;28;906;-80
2021/11/23 04:39:53;;;;;;;;;;;;;;;22.30;29.74;97848.66;5026409;28;786;-80
2021/11/23 04:42:19;;;;;;;;;;;;;;;22.63;30.03;97837.06;5029354;28;766;-80
2021/11/23 04:44:44;;;;;;;;;;;;;;;22.74;29.69;97831.03;5026528;28;993;-80
2021/11/23 04:47:10;;;;;;;;;;;;;;;22.57;29.32;97841.72;5028723;28;946;-79
2021/11/23 04:49:35;;;;;;;;;;;;;;;22.33;29.91;97844.94;5026393;28;965;-80
2021/11/23 04:52:01;;;;;;;;;;;;;;;22.41;29.52;97853.19;5027852;28;1952;-80
2021/11/23 04:54:26;;;;;;;;;;;;;;;22.14;30.04;97860.09;5025489;28;901;-80
2021/11/23 04:56:52;;;;;;;;;;;;;;;22.42;30.45;97863.28;4990242;28;1177;-80
2021/11/23 04:59:17;;;;;;;;;;;;;;;22.68;29.63;97859.19;4988551;28;1682;-80
2021/11/23 05:01:43;;;;;;;;;;;;;;;22.65;29.50;97865.78;4975785;28;924;-80
2021/11/23 05:04:08;;;;;;;;;;;;;;;22.30;30.22;97865.66;4971021;28;1308;-80
2021/11/23 05:06:34;;;;;;;;;;;;;;;22.27;29.87;97863.72;4973258;28;1062;-80
2021/11/23 05:09:00;;;;;;;;;;;;;;;22.31;29.83;97864.41;4973844;28;937;-80
2021/11/23 05:11:27;;;;;;;;;;;;;;;22.57;30.24;97865.19;4992853;28;1954;-80
2021/11/23 05:13:53;;;;;;;;;;;;;;;22.86;29.67;97862.22;4990841;28;914;-80
2021/11/23 05:16:18;;;;;;;;;;;;;;;22.65;29.75;97876.31;4954492;29;893;-80
2021/11/23 05:18:45;;;;;;;;;;;;;;;22.52;29.70;97879.16;4950735;29;1697;-80
2021/11/23 05:21:11;;;;;;;;;;;;;;;22.45;29.28;97879.41;4938495;29;1543;-80
2021/11/23 05:23:36;;;;;;;;;;;;;;;22.28;29.68;97876.69;4950310;29;1228;-80
2021/11/23 05:26:02;;;;;;;;;;;;;;;22.35;29.91;97884.94;4955040;29;1017;-80
2021/11/23 05:28:27;;;;;;;;;;;;;;;22.36;29.65;97882.91;4974454;28;983;-80
2021/11/23 05:30:53;;;;;;;;;;;;;;;22.61;29.94;97887.78;4972618;28;914;-79
2021/11/23 05:33:18;;;;;;;;;;;;;;;22.73;29.58;97889.00;4969649;29;1950;-80
2021/11/23 05:35:49;;;;;;;;;;;;;;;22.79;29.18;97899.31;4974165;29;891;-80
2021/11/23 05:38:14;;;;;;;;;;;;;;;22.56;29.36;97905.38;4971237;29;1494;-81
2021/11/23 05:40:41;;;;;;;;;;;;;;;22.49;29.35;97908.44;4998377;28;1538;-80
2021/11/23 05:43:06;;;;;;;;;;;;;;;22.32;29.68;97911.34;5028764;28;1482;-80
2021/11/23 05:45:32;;;;;;;;;;;;;;;22.46;29.49;97909.34;5030902;28;962;-79
2021/11/23 05:47:57;;;;;;;;;;;;;;;22.38;29.60;97919.28;5038468;28;1404;-80
2021/11/23 05:50:23;;;;;;;;;;;;;;;22.58;30.06;97923.50;5029426;28;919;-79
2021/11/23 05:52:48;;;;;;;;;;;;;;;22.81;29.39;97930.09;5029756;28;1883;-80
2021/11/23 05:55:14;;;;;;;;;;;;;;;22.57;29.41;97921.13;5027960;28;887;-80
2021/11/23 05:57:39;;;;;;;;;;;;;;;22.33;29.83;97918.63;5033875;28;1547;-80
2021/11/23 06:00:05;;;;;;;;;;;;;;;22.43;29.44;97924.41;5064414;28;1003;-80
2021/11/23 06:02:31;;;;;;;;;;;;;;;22.24;29.85;97927.00;5086744;28;787;-80
2021/11/23 06:04:59;;;;;;;;;;;;;;;22.27;30.05;97928.91;5087739;28;1526;-80
2021/11/23 06:07:24;;;;;;;;;;;;;;;22.43;29.79;97927.22;5089576;28;1352;-80
2021/11/23 06:09:49;;;;;;;;;;;;;;;22.62;29.94;97931.91;5086488;28;870;-79
2021/11/23 06:12:15;;;;;;;;;;;;;;;22.76;29.81;97933.50;5075954;28;1901;-80
2021/11/23 06:14:40;;;;;;;;;;;;;;;22.60;29.52;97931.56;5069638;28;1386;-80
2021/11/23 06:17:08;;;;;;;;;;;;;;;22.42;29.65;97929.28;5071468;28;795;-80
2021/11/23 06:19:33;;;;;;;;;;;;;;;22.20;29.93;97942.53;5047970;28;1007;-80
2021/11/23 06:21:58;;;;;;;;;;;;;;;22.47;29.69;97940.06;5030828;28;925;-80
2021/11/23 06:24:24;;;;;;;;;;;;;;;22.35;29.83;97944.47;5028074;28;1444;-80
2021/11/23 06:26:49;;;;;;;;;;;;;;;22.17;29.98;97955.53;4995238;28;1270;-80
2021/11/23 06:29:15;;;;;;;;;;;;;;;22.34;29.73;97957.06;5008842;28;949;-79
2021/11/23 06:31:40;;;;;;;;;;;;;;;22.22;29.96;97959.84;5025930;28;1887;-80
2021/11/23 06:34:08;;;;;;;;;;;;;;;22.52;30.50;97955.72;5007962;28;917;-80
2021/11/23 06:36:34;;;;;;;;;;;;;;;22.66;30.15;97957.31;4991969;28;1508;-79
2021/11/23 06:39:03;;;;;;;;;;;;;;;22.70;29.40;97966.50;4989148;28;910;-80
2021/11/23 06:41:28;;;;;;;;;;;;;;;22.33;29.86;97963.19;4990410;28;923;-80
2021/11/23 06:43:55;;;;;;;;;;;;;;;22.22;29.91;97963.50;4930667;29;946;-79
2021/11/23 06:46:20;;;;;;;;;;;;;;;22.16;30.22;97953.97;4930221;29;1504;-81
2021/11/23 06:48:46;;;;;;;;;;;;;;;22.41;30.53;97946.75;4931670;29;1026;-80
2021/11/23 06:51:11;;;;;;;;;;;;;;;22.65;30.03;97962.19;4965203;29;1003;-80
2021/11/23 06:53:37;;;;;;;;;;;;;;;22.84;29.79;97969.66;4984476;28;1966;-80
2021/11/23 06:56:02;;;;;;;;;;;;;;;22.58;29.82;97968.06;4990703;28;1573;-80
2021/11/23 06:58:28;;;;;;;;;;;;;;;22.42;29.78;97965.34;4987966;28;1044;-80
2021/11/23 07:00:53;;;;;;;;;;;;;;;22.45;29.93;97958.78;4975014;28;963;-80
2021/11/23 07:03:18;;;;;;;;;;;;;;;22.24;30.23;97960.22;4988047;28;970;-80
2021/11/23 07:05:44;;;;;;;;;;;;;;;22.22;30.31;97962.69;4970737;29;1490;-80
2021/11/23 07:08:09;;;;;;;;;;;;;;;22.09;30.44;97956.97;4968538;29;1025;-80
2021/11/23 07:10:35;;;;;;;;;;;;;;;22.46;29.80;97961.16;4971107;29;1059;-81
2021/11/23 07:13:00;;;;;;;;;;;;;;;22.24;30.26;97972.34;4988982;28;1982;-81
2021/11/23 07:15:26;;;;;;;;;;;;;;;22.01;30.44;97975.41;4990141;28;1501;-80
2021/11/23 07:17:52;;;;;;;;;;;;;;;22.51;30.66;97979.66;5004267;28;939;-80
2021/11/23 07:20:17;;;;;;;;;;;;;;;22.70;30.18;97981.50;4991363;28;910;-80
2021/11/23 07:22:43;;;;;;;;;;;;;;;22.69;29.60;97974.22;4986202;28;956;-80
2021/11/23 07:25:08;;;;;;;;;;;;;;;22.33;30.07;97964.00;4968884;28;1356;-80
2021/11/23 07:27:34;;;;;;;;;;;;;;;22.43;29.51;97975.44;4970843;28;1561;-80
2021/11/23 07:29:59;;;;;;;;;;;;;;;22.29;30.36;97985.97;4969234;29;896;-80
2021/11/23 07:32:25;;;;;;;;;;;;;;;22.59;30.11;97995.22;4970637;28;1978;-80
2021/11/23 07:34:51;;;;;;;;;;;;;;;22.63;30.01;97993.03;4968281;28;1364;-81
2021/11/23 07:37:16;;;;;;;;;;;;;;;22.45;30.14;98004.16;4956251;29;1065;-80
2021/11/23 07:39:43;;;;;;;;;;;;;;;22.32;29.67;97995.59;4936922;29;913;-80
2021/11/23 07:42:08;;;;;;;;;;;;;;;22.27;30.01;97999.00;4933295;29;921;-80
2021/11/23 07:44:34;;;;;;;;;;;;;;;22.48;29.67;98000.38;4944590;29;1559;-79
2021/11/23 07:46:59;;;;;;;;;;;;;;;22.22;30.04;98013.72;4951371;29;1136;-80
2021/11/23 07:49:25;;;;;;;;;;;;;;;22.16;30.24;98015.50;4964132;29;945;-80
2021/11/23 07:51:50;;;;;;;;;;;;;;;22.41;29.87;98015.59;4999566;28;1970;-80
2021/11/23 07:54:16;;;;;;;;;;;;;;;22.34;30.08;98013.75;5026539;28;1607;-80
2021/11/23 07:56:42;;;;;;;;;;;;;;;22.39;30.26;98017.28;5012890;28;1491;-80
2021/11/23 07:59:08;;;;;;;;;;;;;;;22.52;30.55;98020.94;5027722;28;954;-80
2021/11/23 08:01:33;;;;;;;;;;;;;;;22.79;30.24;98029.81;5028995;28;870;-80
2021/11/23 08:03:59;;;;;;;;;;;;;;;22.60;29.90;98028.00;5033968;28;1369;-80
2021/11/23 08:06:24;;;;;;;;;;;;;;;22.31;30.25;98028.81;5081321;28;1050;-80
2021/11/23 08:08:51;;;;;;;;;;;;;;;22.29;30.12;98034.16;5067443;28;928;-80
2021/11/23 08:11:17;;;;;;;;;;;;;;;22.20;30.03;98039.69;5069676;28;1895;-80
2021/11/23 08:13:42;;;;;;;;;;;;;;;22.43;29.96;98029.31;5061739;28;1471;-80
2021/11/23 08:16:08;;;;;;;;;;;;;;;22.32;30.06;98040.94;5060780;28;1487;-80
2021/11/23 08:18:33;;;;;;;;;;;;;;;22.45;30.74;98041.00;5045989;28;1444;-80
2021/11/23 08:20:59;;;;;;;;;;;;;;;22.71;30.34;98045.47;5068433;28;1484;-80
2021/11/23 08:23:25;;;;;;;;;;;;;;;22.71;29.96;98050.34;5045411;28;1010;-80
2021/11/23 08:25:51;;;;;;;;;;;;;;;22.59;29.74;98049.09;5031013;28;1371;-80
2021/11/23 08:28:18;;;;;;;;;;;;;;;22.38;30.27;98055.38;5045915;28;1519;-80
2021/11/23 08:30:45;;;;;;;;;;;;;;;22.35;29.70;98062.75;5033179;28;945;-80
2021/11/23 08:33:11;;;;;;;;;;;;;;;22.22;30.17;98059.06;4951153;29;1887;-80
2021/11/23 08:35:36;;;;;;;;;;;;;;;22.38;29.92;98066.72;4939233;29;918;-80
2021/11/23 08:38:05;;;;;;;;;;;;;;;22.34;30.01;98078.16;4952006;29;1412;-79
2021/11/23 08:40:30;;;;;;;;;;;;;;;22.22;29.97;98065.53;4985089;28;936;-80
2021/11/23 08:42:57;;;;;;;;;;;;;;;22.39;30.78;98074.00;4975894;28;963;-80
2021/11/23 08:45:22;;;;;;;;;;;;;;;22.57;30.53;98065.75;5011283;28;1575;-80
2021/11/23 08:47:48;;;;;;;;;;;;;;;22.65;30.25;98064.31;5011563;28;918;-79
2021/11/23 08:50:13;;;;;;;;;;;;;;;22.28;30.51;98069.41;4999079;28;759;-81
2021/11/23 08:52:39;;;;;;;;;;;;;;;22.35;29.92;98060.69;4992210;28;1954;-80
2021/11/23 08:55:05;;;;;;;;;;;;;;;22.07;29.94;98064.28;4994888;28;1552;-80
2021/11/23 08:57:30;;;;;;;;;;;;;;;22.29;29.42;98071.00;5001555;28;1279;-80
2021/11/23 09:00:10;;;;;;;;;;;;;;;22.33;29.72;98068.88;4992034;28;894;-80
2021/11/23 09:02:36;;;;;;;;;;;;;;;22.36;31.07;98070.78;4993263;28;915;-80
2021/11/23 09:05:01;;;;;;;;;;;;;;;22.75;30.04;98074.53;5061558;28;911;-80
2021/11/23 09:07:27;;;;;;;;;;;;;;;22.69;29.90;98073.50;5069556;28;1432;-80
2021/11/23 09:09:53;;;;;;;;;;;;;;;22.47;29.95;98075.38;5061136;28;1883;-80
2021/11/23 09:12:19;;;;;;;;;;;;;;;22.42;29.83;98073.06;5051380;28;1879;-80
2021/11/23 09:14:44;;;;;;;;;;;;;;;22.40;29.98;98075.56;5048914;28;809;-79
2021/11/23 09:17:09;;;;;;;;;;;;;;;22.52;30.39;98071.97;5051272;28;899;-80
2021/11/23 09:19:35;;;;;;;;;;;;;;;22.46;30.74;98077.41;5049658;28;921;-80
2021/11/23 09:22:01;;;;;;;;;;;;;;;22.65;30.14;98075.66;5051167;28;1964;-80
2021/11/23 09:24:26;;;;;;;;;;;;;;;22.78;29.85;98076.44;5050348;28;910;-80
2021/11/23 09:26:53;;;;;;;;;;;;;;;22.47;29.59;98070.47;5052287;28;1060;-80
2021/11/23 09:29:19;;;;;;;;;;;;;;;22.28;29.77;98080.75;5049341;28;822;-80
2021/11/23 09:31:44;;;;;;;;;;;;;;;22.33;29.62;98085.09;5011419;28;1985;-80
2021/11/23 09:34:11;;;;;;;;;;;;;;;22.39;29.75;98077.63;4971460;28;1529;-81
2021/11/23 09:36:37;;;;;;;;;;;;;;;22.33;30.18;98076.59;4973323;28;906;-80
2021/11/23 09:39:03;;;;;;;;;;;;;;;22.38;31.17;98078.03;4963215;29;1448;-79
2021/11/23 09:41:29;;;;;;;;;;;;;;;22.65;30.69;98080.53;4955301;28;2081;-79
2021/11/23 09:43:54;;;;;;;;;;;;;;;22.72;30.51;98081.09;4958019;29;1766;-80
2021/11/23 09:46:20;;;;;;;;;;;;;;;22.39;30.65;98086.13;4965757;28;1547;-80
2021/11/23 09:48:45;;;;;;;;;;;;;;;22.33;30.38;98080.22;4953997;28;1599;-80
2021/11/23 09:51:25;;;;;;;;;;;;;;;22.31;30.26;98079.84;4954492;29;1574;-81
2021/11/23 09:53:50;;;;;;;;;;;;;;;22.26;30.18;98077.56;4982326;28;1830;-80
2021/11/23 09:56:16;;;;;;;;;;;;;;;22.27;30.21;98081.97;4985196;28;1079;-80
2021/11/23 09:58:41;;;;;;;;;;;;;;;22.37;30.11;98088.59;4929914;29;1497;-80
2021/11/23 10:01:08;;;;;;;;;;;;;;;22.35;30.26;98082.59;4934595;29;902;-80
2021/11/23 10:03:33;;;;;;;;;;;;;;;22.41;30.42;98089.28;4929680;29;1476;-80
2021/11/23 10:06:04;;;;;;;;;;;;;;;22.23;30.48;98072.81;4933714;29;1805;-79
2021/11/23 10:08:30;;;;;;;;;;;;;;;22.54;30.86;98080.84;4939583;29;949;-80
2021/11/23 10:10:55;;;;;;;;;;;;;;;22.67;30.72;98073.16;4956786;29;1708;-81
2021/11/23 10:13:21;;;;;;;;;;;;;;;22.77;29.87;98077.69;4970090;28;1887;-80
2021/11/23 10:15:47;;;;;;;;;;;;;;;22.41;30.29;98074.31;4973474;28;940;-80
2021/11/23 10:18:13;;;;;;;;;;;;;;;22.38;30.17;98076.00;4950773;29;968;-80
2021/11/23 10:20:43;;;;;;;;;;;;;;;22.41;30.54;98075.13;4952004;29;1426;-80
2021/11/23 10:23:10;;;;;;;;;;;;;;;22.35;30.63;98074.88;4951156;29;936;-80
2021/11/23 10:25:35;;;;;;;;;;;;;;;22.49;30.35;98081.41;4952388;29;904;-80
2021/11/23 10:28:01;;;;;;;;;;;;;;;22.51;30.38;98081.72;4966935;29;1113;-80
2021/11/23 10:30:26;;;;;;;;;;;;;;;22.48;30.32;98071.28;4970722;29;1497;-80
2021/11/23 10:32:55;;;;;;;;;;;;;;;22.18;30.79;98070.50;4971277;29;1967;-80
2021/11/23 10:35:21;;;;;;;;;;;;;;;22.22;30.71;98076.84;4971646;29;882;-80
2021/11/23 10:37:47;;;;;;;;;;;;;;;22.20;30.59;98076.53;5007719;28;1016;-81
2021/11/23 10:40:16;;;;;;;;;;;;;;;22.72;30.81;98078.25;5004256;28;1540;-80
2021/11/23 10:42:42;;;;;;;;;;;;;;;22.69;30.82;98070.66;4993145;28;1552;-80
2021/11/23 10:45:09;;;;;;;;;;;;;;;22.90;30.40;98079.78;4971844;28;1479;-80
2021/11/23 10:47:36;;;;;;;;;;;;;;;23.07;29.93;98076.41;4973979;28;887;-80
2021/11/23 10:50:08;;;;;;;;;;;;;;;22.41;30.48;98077.94;4987106;28;887;-80
2021/11/23 10:52:36;;;;;;;;;;;;;;;22.18;30.83;98064.84;4989297;28;1879;-80
2021/11/23 10:55:05;;;;;;;;;;;;;;;22.41;30.60;98068.66;4987347;28;967;-80
2021/11/23 10:57:40;;;;;;;;;;;;;;;22.32;30.65;98070.09;4990390;28;901;-80
2021/11/23 11:00:06;;;;;;;;;;;;;;;22.35;30.43;98077.72;4988804;28;918;-80
2021/11/23 11:02:32;;;;;;;;;;;;;;;22.19;30.84;98066.44;4990457;28;1482;-80
2021/11/23 11:04:57;;;;;;;;;;;;;;;22.26;30.84;98071.88;4972659;28;980;-80
2021/11/23 11:07:23;;;;;;;;;;;;;;;22.23;30.42;98064.31;4950965;29;1029;-80
2021/11/23 11:09:48;;;;;;;;;;;;;;;22.21;30.66;98063.94;4930141;29;910;-80
2021/11/23 11:12:14;;;;;;;;;;;;;;;22.50;30.98;98058.25;4963459;29;1919;-80
2021/11/23 11:14:39;;;;;;;;;;;;;;;22.73;30.83;98062.03;4968052;29;918;-80
2021/11/23 11:17:06;;;;;;;;;;;;;;;22.88;30.64;98066.84;4940631;28;986;-75
2021/11/23 11:20:01;;;;;;;;;;;;;;;22.06;31.74;98065.53;4920763;29;997;-74
2021/11/23 11:22:26;;;;;;;;;;;;;;;22.31;31.80;98071.34;4974077;28;1490;-77
2021/11/23 11:25:15;;;;;;;;;;;;;;;22.32;31.64;98072.94;4956160;29;1222;-77
2021/11/23 11:27:44;;;;;;;;;;;;;;;22.18;32.02;98076.19;4956643;29;1213;-76
2021/11/23 11:30:51;;;;;;;;;;;;;;;21.95;32.76;98073.53;4996638;28;929;-77
2021/11/23 11:33:23;;;;;;;;;;;;;;;22.54;31.40;98075.16;4905651;29;1896;-81
2021/11/23 11:35:49;;;;;;;;;;;;;;;22.16;31.77;98077.84;4897210;29;941;-81
2021/11/23 11:38:30;;;;;;;;;;;;;;;22.43;31.62;98083.16;4859841;29;967;-81
2021/11/23 11:41:19;;;;;;;;;;;;;;;22.34;31.22;98078.97;4862465;29;956;-81
2021/11/23 11:43:44;;;;;;;;;;;;;;;22.44;30.95;98076.28;4894372;29;1553;-81
2021/11/23 11:46:10;;;;;;;;;;;;;;;22.44;30.94;98081.94;4897296;29;1026;-81
2021/11/23 11:48:37;;;;;;;;;;;;;;;22.27;31.17;98076.31;4894162;29;959;-82
2021/11/23 11:51:02;;;;;;;;;;;;;;;22.63;30.31;98078.91;4898438;29;845;-81
2021/11/23 11:53:31;;;;;;;;;;;;;;;22.55;30.66;98088.09;4894920;29;1907;-81
2021/11/23 11:55:57;;;;;;;;;;;;;;;22.53;30.28;98079.22;4897917;29;1473;-81
2021/11/23 11:58:40;;;;;;;;;;;;;;;22.32;30.48;98089.94;4894793;29;1568;-81
2021/11/23 12:01:18;;;;;;;;;;;;;;;22.34;31.94;98087.47;4926048;29;1032;-80
2021/11/23 12:03:44;;;;;;;;;;;;;;;22.67;32.05;98084.50;4967546;28;855;-81
2021/11/23 12:06:09;;;;;;;;;;;;;;;22.75;32.19;98087.94;4992560;28;1510;-81
2021/11/23 12:08:36;;;;;;;;;;;;;;;22.89;31.81;98087.50;4995238;28;873;-81
2021/11/23 12:11:04;;;;;;;;;;;;;;;22.49;31.74;98087.06;5023642;28;1276;-80
2021/11/23 12:13:41;;;;;;;;;;;;;;;22.59;31.48;98088.81;5009096;28;1883;-81
2021/11/23 12:16:09;;;;;;;;;;;;;;;22.43;31.33;98097.34;4998703;28;1495;-81
2021/11/23 12:18:47;;;;;;;;;;;;;;;22.30;31.38;98089.59;5009658;28;906;-81
2021/11/23 12:21:19;;;;;;;;;;;;;;;22.32;31.41;98104.09;5040512;28;887;-81
2021/11/23 12:23:56;;;;;;;;;;;;;;;22.12;31.27;98099.81;5028158;28;1165;-81
2021/11/23 12:26:24;;;;;;;;;;;;;;;22.30;31.02;98106.59;4968074;29;1518;-81
2021/11/23 12:28:50;;;;;;;;;;;;;;;22.34;31.12;98095.97;4969622;29;969;-81
2021/11/23 12:31:16;;;;;;;;;;;;;;;22.34;30.99;98107.31;4972212;29;974;-81
2021/11/23 12:33:42;;;;;;;;;;;;;;;22.34;30.88;98110.16;4951121;29;1875;-81
2021/11/23 12:36:17;;;;;;;;;;;;;;;22.77;31.57;98108.91;4953869;29;1479;-81
2021/11/23 12:38:43;;;;;;;;;;;;;;;22.76;31.45;98124.34;4950208;29;872;-81
2021/11/23 12:41:13;;;;;;;;;;;;;;;22.75;31.40;98114.25;4938935;29;979;-81
2021/11/23 12:43:38;;;;;;;;;;;;;;;22.33;31.43;98111.41;4893434;29;915;-81
2021/11/23 12:46:10;;;;;;;;;;;;;;;22.28;31.27;98126.13;4883056;29;1469;-81
2021/11/23 12:48:37;;;;;;;;;;;;;;;22.41;30.86;98128.19;4893781;29;916;-81
2021/11/23 12:51:21;;;;;;;;;;;;;;;22.45;31.08;98123.22;4896722;29;928;-81
2021/11/23 12:54:07;;;;;;;;;;;;;;;22.50;31.32;98129.13;4896063;29;1980;-81
2021/11/23 12:57:05;;;;;;;;;;;;;;;22.59;31.44;98134.16;4926822;29;1496;-82
2021/11/23 12:59:36;;;;;;;;;;;;;;;22.75;30.99;98144.66;4989521;28;1154;-81